createdAt,value
2023-02-15T00:02:22.079Z,3.20
2023-02-15T00:04:54.695Z,2.80
2023-02-15T00:07:25.624Z,3.00
2023-02-15T00:09:56.317Z,3.30
2023-02-15T00:12:27.196Z,2.90
2023-02-15T00:14:57.935Z,3.30
2023-02-15T00:17:31.263Z,3.10
2023-02-15T00:20:02.071Z,2.80
2023-02-15T00:22:32.829Z,2.80
2023-02-15T00:25:03.650Z,3.10
2023-02-15T00:27:35.208Z,3.10
2023-02-15T00:30:08.045Z,2.40
2023-02-15T00:32:38.742Z,2.80
2023-02-15T00:35:11.705Z,3.30
2023-02-15T00:37:42.613Z,3.30
2023-02-15T00:40:14.877Z,2.60
2023-02-15T00:42:45.681Z,3.40
2023-02-15T00:45:17.514Z,3.60
2023-02-15T00:47:48.297Z,3.50
2023-02-15T00:50:22.251Z,3.30
2023-02-15T00:52:54.390Z,2.70
2023-02-15T00:55:25.094Z,2.80
2023-02-15T00:57:55.831Z,2.70
2023-02-15T01:00:26.672Z,2.90
2023-02-15T01:02:57.298Z,2.70
2023-02-15T01:05:28.157Z,3.20
2023-02-15T01:07:59.393Z,3.00
2023-02-15T01:10:30.758Z,2.90
2023-02-15T01:13:01.811Z,2.80
2023-02-15T01:15:32.979Z,3.40
2023-02-15T01:18:03.796Z,3.00
2023-02-15T01:20:40.104Z,2.70
2023-02-15T01:23:11.007Z,2.80
2023-02-15T01:25:41.736Z,2.90
2023-02-15T01:28:12.777Z,2.60
2023-02-15T01:30:43.646Z,3.00
2023-02-15T01:33:19.114Z,2.90
2023-02-15T01:35:50.066Z,2.80
2023-02-15T01:38:20.758Z,2.90
2023-02-15T01:40:54.655Z,2.80
2023-02-15T01:43:41.096Z,2.60
2023-02-15T01:46:14.284Z,3.00
2023-02-15T01:48:49.125Z,2.90
2023-02-15T01:51:23.312Z,2.70
2023-02-15T01:53:58.033Z,3.00
2023-02-15T01:56:33.663Z,2.90
2023-02-15T01:59:09.057Z,2.80
2023-02-15T02:01:40.981Z,2.70
2023-02-15T02:04:17.324Z,3.10
2023-02-15T02:06:51.161Z,3.00
2023-02-15T02:09:21.964Z,3.00
2023-02-15T02:11:55.209Z,2.80
2023-02-15T02:14:27.394Z,3.10
2023-02-15T02:17:08.007Z,3.00
2023-02-15T02:20:03.727Z,2.70
2023-02-15T02:23:04.472Z,3.90
2023-02-15T02:26:00.819Z,3.40
2023-02-15T02:29:02.623Z,3.50
2023-02-15T02:31:46.714Z,2.90
2023-02-15T02:34:26.537Z,2.80
2023-02-15T02:39:43.771Z,3.00
2023-02-15T02:42:20.600Z,3.00
2023-02-15T02:44:56.510Z,2.90
2023-02-15T02:47:33.257Z,3.20
2023-02-15T02:50:07.288Z,3.00
2023-02-15T02:52:44.715Z,3.20
2023-02-15T02:55:19.678Z,3.20
2023-02-15T02:57:56.898Z,2.90
2023-02-15T03:00:31.702Z,3.20
2023-02-15T03:03:08.556Z,3.30
2023-02-15T03:05:43.707Z,2.90
2023-02-15T03:08:22.837Z,2.80
2023-02-15T03:10:57.390Z,3.10
2023-02-15T03:13:28.805Z,3.00
2023-02-15T03:16:19.999Z,2.50
2023-02-15T03:18:58.806Z,2.90
2023-02-15T03:21:36.594Z,2.60
2023-02-15T03:24:13.262Z,2.80
2023-02-15T03:26:48.878Z,2.90
2023-02-15T03:29:22.447Z,2.70
2023-02-15T03:34:24.987Z,2.80
2023-02-15T03:37:02.376Z,2.70
2023-02-15T03:39:38.220Z,2.20
2023-02-15T03:42:16.029Z,2.50
2023-02-15T03:44:56.442Z,2.70
2023-02-15T03:47:32.341Z,2.50
2023-02-15T03:50:28.727Z,2.70
2023-02-15T03:53:04.377Z,2.70
2023-02-15T03:55:35.677Z,2.30
2023-02-15T03:58:24.210Z,3.10
2023-02-15T04:01:18.385Z,2.40
2023-02-15T04:03:56.906Z,2.40
2023-02-15T04:06:27.634Z,2.70
2023-02-15T04:09:16.267Z,2.50
2023-02-15T04:11:47.495Z,2.40
2023-02-15T04:14:47.543Z,2.70
2023-02-15T04:17:18.482Z,2.60
2023-02-15T04:20:06.922Z,2.60
2023-02-15T04:22:55.417Z,2.70
2023-02-15T04:25:26.457Z,2.80
2023-02-15T04:27:57.992Z,2.80
2023-02-15T04:30:29.441Z,2.80
2023-02-15T04:33:00.168Z,2.70
2023-02-15T04:35:32.845Z,2.70
2023-02-15T04:38:03.727Z,2.90
2023-02-15T04:40:34.459Z,2.80
2023-02-15T04:43:06.157Z,2.70
2023-02-15T04:45:36.836Z,3.00
2023-02-15T04:48:07.756Z,2.40
2023-02-15T04:50:38.385Z,2.60
2023-02-15T04:53:09.816Z,2.60
2023-02-15T04:55:40.786Z,2.60
2023-02-15T04:58:11.624Z,2.70
2023-02-15T05:00:42.501Z,2.90
2023-02-15T05:03:13.306Z,2.60
2023-02-15T05:05:45.758Z,2.40
2023-02-15T05:08:16.737Z,2.90
2023-02-15T05:10:49.620Z,3.00
2023-02-15T05:13:20.617Z,2.40
2023-02-15T05:15:54.941Z,2.60
2023-02-15T05:18:25.973Z,2.90
2023-02-15T05:20:57.172Z,2.90
2023-02-15T05:23:28.635Z,2.50
2023-02-15T05:26:16.862Z,3.20
2023-02-15T05:28:47.652Z,2.90
2023-02-15T05:31:20.896Z,3.00
2023-02-15T05:33:52.144Z,3.00
2023-02-15T05:36:23.314Z,2.70
2023-02-15T05:38:54.249Z,2.70
2023-02-15T05:41:26.645Z,3.10
2023-02-15T05:43:58.688Z,2.80
2023-02-15T05:46:29.586Z,2.50
2023-02-15T05:49:00.443Z,2.70
2023-02-15T05:51:31.211Z,3.10
2023-02-15T05:54:02.158Z,2.80
2023-02-15T05:56:33.518Z,2.80
2023-02-15T05:59:04.707Z,3.80
2023-02-15T06:01:35.537Z,2.80
2023-02-15T06:04:06.500Z,2.90
2023-02-15T06:06:37.479Z,2.50
2023-02-15T06:09:08.654Z,2.50
2023-02-15T06:11:39.583Z,2.70
2023-02-15T06:14:10.620Z,2.60
2023-02-15T06:16:41.455Z,2.70
2023-02-15T06:19:12.402Z,2.60
2023-02-15T06:21:43.101Z,2.90
2023-02-15T06:24:14.174Z,2.90
2023-02-15T06:26:44.933Z,2.90
2023-02-15T06:29:16.559Z,3.00
2023-02-15T06:31:47.525Z,2.70
2023-02-15T06:34:18.738Z,2.80
2023-02-15T06:36:49.508Z,2.70
2023-02-15T06:39:20.349Z,2.70
2023-02-15T06:41:51.087Z,2.90
2023-02-15T06:44:21.884Z,3.00
2023-02-15T06:46:52.690Z,2.90
2023-02-15T06:49:23.311Z,2.70
2023-02-15T06:51:54.044Z,3.60
2023-02-15T06:54:24.657Z,2.40
2023-02-15T06:56:55.246Z,2.60
2023-02-15T06:59:26.144Z,3.50
2023-02-15T07:01:56.850Z,2.70
2023-02-15T07:04:29.805Z,3.10
2023-02-15T07:07:00.719Z,2.70
2023-02-15T07:09:31.529Z,2.90
2023-02-15T07:12:19.789Z,3.00
2023-02-15T07:14:50.449Z,2.70
2023-02-15T07:17:35.433Z,3.30
2023-02-15T07:20:09.429Z,2.60
2023-02-15T07:22:40.548Z,2.60
2023-02-15T07:25:13.609Z,2.40
2023-02-15T07:27:45.180Z,2.50
2023-02-15T07:30:18.854Z,2.80
2023-02-15T07:33:07.131Z,2.70
2023-02-15T07:35:37.913Z,2.60
2023-02-15T07:38:08.819Z,2.50
2023-02-15T07:40:39.498Z,3.00
2023-02-15T07:43:10.264Z,3.10
2023-02-15T07:45:41.529Z,2.50
2023-02-15T07:48:12.385Z,2.80
2023-02-15T07:50:43.701Z,3.20
2023-02-15T07:53:14.581Z,2.70
2023-02-15T07:55:45.236Z,3.30
2023-02-15T07:58:16.056Z,2.70
2023-02-15T08:00:59.296Z,3.00
2023-02-15T08:03:30.539Z,3.40
2023-02-15T08:06:02.407Z,3.20
2023-02-15T08:08:35.727Z,3.10
2023-02-15T08:11:29.815Z,3.50
2023-02-15T08:14:03.685Z,3.70
2023-02-15T08:16:38.802Z,2.70
2023-02-15T08:19:11.586Z,4.20
2023-02-15T08:21:44.868Z,3.00
2023-02-15T08:24:17.867Z,3.40
2023-02-15T08:26:49.551Z,3.00
2023-02-15T08:29:23.453Z,3.40
2023-02-15T08:31:59.784Z,2.80
2023-02-15T08:34:30.968Z,3.20
2023-02-15T08:37:02.048Z,2.90
2023-02-15T08:39:33.112Z,2.90
2023-02-15T08:42:04.658Z,3.10
2023-02-15T08:44:35.803Z,3.20
2023-02-15T08:47:06.606Z,3.60
2023-02-15T08:49:37.538Z,3.50
2023-02-15T08:52:08.594Z,3.80
2023-02-15T08:54:39.547Z,3.40
2023-02-15T08:57:11.496Z,4.60
2023-02-15T08:59:42.396Z,3.90
2023-02-15T09:02:14.642Z,3.20
2023-02-15T09:04:45.372Z,3.70
2023-02-15T09:07:16.190Z,3.40
2023-02-15T09:09:47.847Z,3.50
2023-02-15T09:12:20.738Z,3.60
2023-02-15T09:14:51.576Z,3.40
2023-02-15T09:17:22.518Z,3.80
2023-02-15T09:19:53.419Z,3.40
2023-02-15T09:22:24.251Z,4.00
2023-02-15T09:24:55.240Z,3.50
2023-02-15T09:27:26.084Z,4.00
2023-02-15T09:29:56.958Z,3.50
2023-02-15T09:32:27.649Z,3.60
2023-02-15T09:34:58.466Z,3.60
2023-02-15T09:37:29.443Z,3.90
2023-02-15T09:40:01.411Z,3.40
2023-02-15T09:42:56.716Z,3.50
2023-02-15T09:45:50.596Z,3.90
2023-02-15T09:48:31.728Z,3.70
2023-02-15T09:51:18.450Z,3.50
2023-02-15T09:54:06.642Z,3.90
2023-02-15T09:56:44.796Z,3.70
2023-02-15T09:59:26.552Z,4.10
2023-02-15T10:02:12.413Z,3.40
2023-02-15T10:04:56.983Z,4.10
2023-02-15T10:07:50.172Z,3.90
2023-02-15T10:10:31.561Z,3.80
2023-02-15T10:13:24.394Z,3.50
2023-02-15T10:16:09.010Z,3.50
2023-02-15T10:18:49.611Z,3.60
2023-02-15T10:21:32.733Z,3.30
2023-02-15T10:24:24.332Z,3.30
2023-02-15T10:26:57.709Z,3.80
2023-02-15T10:29:37.037Z,3.70
2023-02-15T10:32:19.110Z,3.70
2023-02-15T10:34:56.699Z,3.70
2023-02-15T10:37:48.907Z,4.00
2023-02-15T10:40:28.394Z,4.70
2023-02-15T10:43:14.640Z,3.80
2023-02-15T10:45:55.806Z,3.50
2023-02-15T10:48:47.903Z,3.60
2023-02-15T10:51:30.362Z,3.80
2023-02-15T10:54:15.558Z,3.80
2023-02-15T10:56:57.229Z,3.30
2023-02-15T10:59:49.409Z,3.40
2023-02-15T11:02:28.348Z,3.50
2023-02-15T11:05:18.267Z,3.50
2023-02-15T11:07:53.050Z,4.20
2023-02-15T11:10:32.929Z,3.90
2023-02-15T11:13:10.824Z,3.80
2023-02-15T11:15:46.542Z,3.50
2023-02-15T11:18:25.383Z,3.30
2023-02-15T11:21:00.622Z,4.50
2023-02-15T11:23:34.359Z,3.50
2023-02-15T11:28:41.841Z,3.90
2023-02-15T11:31:19.710Z,3.80
2023-02-15T11:33:56.368Z,3.50
2023-02-15T11:36:31.240Z,3.00
2023-02-15T11:39:06.773Z,3.00
2023-02-15T11:41:43.138Z,3.60
2023-02-15T11:44:20.131Z,3.50
2023-02-15T11:46:51.224Z,3.40
2023-02-15T11:49:29.760Z,3.70
2023-02-15T11:52:02.173Z,3.90
2023-02-15T11:54:36.670Z,3.60
2023-02-15T11:57:17.539Z,3.80
2023-02-15T11:59:52.989Z,3.70
2023-02-15T12:02:27.763Z,3.70
2023-02-15T12:05:02.551Z,3.60
2023-02-15T12:07:39.014Z,3.50
2023-02-15T12:10:24.417Z,3.50
2023-02-15T12:13:13.288Z,3.60
2023-02-15T12:15:47.489Z,4.50
2023-02-15T12:18:39.011Z,4.00
2023-02-15T12:21:14.664Z,4.00
2023-02-15T12:23:52.520Z,4.40
2023-02-15T12:26:30.201Z,4.90
2023-02-15T12:29:03.856Z,3.90
2023-02-15T12:31:39.263Z,4.00
2023-02-15T12:34:20.500Z,3.50
2023-02-15T12:36:55.414Z,3.80
2023-02-15T12:39:29.410Z,4.00
2023-02-15T12:42:07.624Z,4.40
2023-02-15T12:44:39.274Z,3.70
2023-02-15T12:47:28.904Z,3.90
2023-02-15T12:50:23.873Z,3.70
2023-02-15T12:53:08.117Z,3.80
2023-02-15T12:55:45.349Z,7.00
2023-02-15T12:58:20.331Z,4.40
2023-02-15T13:01:04.083Z,4.60
2023-02-15T13:03:35.701Z,4.20
2023-02-15T13:06:09.374Z,4.20
2023-02-15T13:08:47.949Z,5.10
2023-02-15T13:11:27.019Z,4.10
2023-02-15T13:14:00.929Z,4.20
2023-02-15T13:16:36.155Z,4.20
2023-02-15T13:19:13.570Z,4.50
2023-02-15T13:21:48.451Z,4.00
2023-02-15T13:24:25.151Z,3.80
2023-02-15T13:27:14.057Z,3.80
2023-02-15T13:29:50.686Z,4.40
2023-02-15T13:32:31.047Z,4.50
2023-02-15T13:35:06.132Z,4.80
2023-02-15T13:38:04.901Z,4.50
2023-02-15T13:40:39.379Z,4.70
2023-02-15T13:43:22.762Z,4.70
2023-02-15T13:46:06.198Z,4.80
2023-02-15T13:48:50.974Z,4.50
2023-02-15T13:51:29.867Z,4.60
2023-02-15T13:54:23.322Z,3.90
2023-02-15T13:57:06.954Z,4.40
2023-02-15T13:59:57.221Z,4.60
2023-02-15T14:02:48.682Z,4.80
2023-02-15T14:05:48.354Z,4.60
2023-02-15T14:08:32.080Z,4.20
2023-02-15T14:11:08.237Z,4.40
2023-02-15T14:14:06.394Z,4.20
2023-02-15T14:17:05.767Z,4.40
2023-02-15T14:19:42.318Z,4.10
2023-02-15T14:22:23.524Z,4.10
2023-02-15T14:25:09.217Z,4.00
2023-02-15T14:27:53.249Z,4.10
2023-02-15T14:30:28.169Z,4.30
2023-02-15T14:33:03.673Z,4.50
2023-02-15T14:35:34.698Z,4.20
2023-02-15T14:38:15.274Z,4.30
2023-02-15T14:41:05.367Z,4.00
2023-02-15T14:43:47.135Z,4.20
2023-02-15T14:46:28.772Z,3.80
2023-02-15T14:49:08.254Z,4.90
2023-02-15T14:52:08.228Z,5.00
2023-02-15T14:54:58.165Z,4.70
2023-02-15T14:57:38.588Z,4.20
2023-02-15T15:00:36.640Z,4.60
2023-02-15T15:03:21.819Z,3.70
2023-02-15T15:05:55.277Z,5.00
2023-02-15T15:11:44.289Z,4.50
2023-02-15T15:14:46.794Z,4.30
2023-02-15T15:17:51.455Z,4.70
2023-02-15T15:20:45.421Z,7.00
2023-02-15T15:23:52.083Z,5.20
2023-02-15T15:26:28.796Z,5.00
2023-02-15T15:29:04.742Z,4.70
2023-02-15T15:31:50.151Z,5.40
2023-02-15T15:35:02.210Z,5.40
2023-02-15T15:38:03.541Z,5.80
2023-02-15T15:41:05.338Z,5.50
2023-02-15T15:44:10.664Z,4.30
2023-02-15T15:47:00.205Z,4.60
2023-02-15T15:49:35.216Z,5.20
2023-02-15T15:52:14.297Z,4.80
2023-02-15T15:54:46.875Z,5.00
2023-02-15T15:57:24.838Z,4.60
2023-02-15T15:59:56.338Z,4.70
2023-02-15T16:02:27.739Z,4.40
2023-02-15T16:05:08.045Z,4.80
2023-02-15T16:07:42.706Z,5.20
2023-02-15T16:10:25.627Z,5.00
2023-02-15T16:12:57.682Z,5.40
2023-02-15T16:15:33.343Z,4.70
2023-02-15T16:18:04.969Z,4.90
2023-02-15T16:20:38.347Z,4.20
2023-02-15T16:23:36.731Z,4.50
2023-02-15T16:26:16.018Z,6.00
2023-02-15T16:28:53.241Z,4.90
2023-02-15T16:31:25.040Z,5.00
2023-02-15T16:33:57.907Z,4.90
2023-02-15T16:36:30.396Z,4.70
2023-02-15T16:39:21.380Z,5.00
2023-02-15T16:41:56.882Z,6.30
2023-02-15T16:44:31.345Z,4.90
2023-02-15T16:47:03.625Z,7.10
2023-02-15T16:49:45.496Z,5.50
2023-02-15T16:52:22.194Z,5.30
2023-02-15T16:54:57.199Z,5.90
2023-02-15T16:57:33.346Z,4.90
2023-02-15T17:00:08.882Z,5.20
2023-02-15T17:02:55.743Z,5.30
2023-02-15T17:05:32.722Z,5.60
2023-02-15T17:08:18.622Z,5.50
2023-02-15T17:11:05.521Z,5.00
2023-02-15T17:13:36.836Z,5.50
2023-02-15T17:16:30.434Z,6.30
2023-02-15T17:19:02.670Z,5.70
2023-02-15T17:21:37.488Z,6.00
2023-02-15T17:24:08.952Z,6.30
2023-02-15T17:26:41.222Z,6.00
2023-02-15T17:29:22.558Z,6.00
2023-02-15T17:31:56.959Z,5.90
2023-02-15T17:35:01.029Z,6.30
2023-02-15T17:37:34.417Z,6.10
2023-02-15T17:40:20.286Z,5.80
2023-02-15T17:42:51.445Z,6.00
2023-02-15T17:45:23.467Z,6.70
2023-02-15T17:47:54.919Z,5.90
2023-02-15T17:50:30.244Z,6.90
2023-02-15T17:53:03.118Z,6.20
2023-02-15T17:55:39.165Z,6.00
2023-02-15T17:58:12.206Z,5.80
2023-02-15T18:01:03.711Z,6.70
2023-02-15T18:06:43.857Z,6.40
2023-02-15T18:09:34.869Z,6.20
2023-02-15T18:12:17.073Z,5.90
2023-02-15T18:14:48.006Z,6.30
2023-02-15T18:17:19.447Z,6.60
2023-02-15T18:19:50.940Z,6.20
2023-02-15T18:22:22.390Z,6.20
2023-02-15T18:24:53.240Z,6.10
2023-02-15T18:27:24.179Z,6.40
2023-02-15T18:29:55.107Z,6.20
2023-02-15T18:32:37.604Z,6.10
2023-02-15T18:35:15.186Z,6.30
2023-02-15T18:37:46.975Z,6.10
2023-02-15T18:40:21.040Z,6.20
2023-02-15T18:42:51.900Z,6.20
2023-02-15T18:45:25.170Z,6.70
2023-02-15T18:47:56.240Z,6.80
2023-02-15T18:50:30.120Z,6.60
2023-02-15T18:53:01.712Z,7.00
2023-02-15T18:55:33.957Z,6.50
2023-02-15T18:58:05.412Z,6.30
2023-02-15T19:00:37.290Z,6.80
2023-02-15T19:03:08.151Z,6.40
2023-02-15T19:05:39.086Z,6.50
2023-02-15T19:08:22.037Z,6.20
2023-02-15T19:10:53.494Z,6.30
2023-02-15T19:13:24.374Z,5.40
2023-02-15T19:15:55.482Z,6.20
2023-02-15T19:18:26.653Z,5.80
2023-02-15T19:20:57.643Z,6.00
2023-02-15T19:23:28.811Z,6.40
2023-02-15T19:25:59.841Z,6.20
2023-02-15T19:28:34.667Z,5.90
2023-02-15T19:31:05.868Z,5.70
2023-02-15T19:33:37.065Z,5.70
2023-02-15T19:36:15.246Z,5.90
2023-02-15T19:38:49.224Z,6.50
2023-02-15T19:41:25.148Z,6.10
2023-02-15T19:43:57.226Z,6.40
2023-02-15T19:46:28.446Z,6.30
2023-02-15T19:48:59.840Z,6.50
2023-02-15T19:51:31.065Z,6.20
2023-02-15T19:54:02.914Z,5.90
2023-02-15T19:56:35.532Z,6.30
2023-02-15T19:59:07.164Z,6.00
2023-02-15T20:01:39.738Z,6.10
2023-02-15T20:04:12.440Z,5.90
2023-02-15T20:09:21.373Z,5.60
2023-02-15T20:11:52.957Z,6.30
2023-02-15T20:14:24.546Z,6.00
2023-02-15T20:16:55.440Z,6.40
2023-02-15T20:19:27.534Z,5.80
2023-02-15T20:21:59.765Z,5.90
2023-02-15T20:24:32.377Z,5.40
2023-02-15T20:27:03.516Z,5.30
2023-02-15T20:29:34.396Z,5.40
2023-02-15T20:32:05.973Z,5.10
2023-02-15T20:34:37.046Z,5.40
2023-02-15T20:37:19.509Z,5.60
2023-02-15T20:39:51.326Z,5.30
2023-02-15T20:42:22.462Z,5.70
2023-02-15T20:44:53.299Z,5.50
2023-02-15T20:47:26.826Z,5.30
2023-02-15T20:49:59.333Z,5.00
2023-02-15T20:52:30.573Z,5.40
2023-02-15T20:55:01.458Z,4.90
2023-02-15T20:57:32.416Z,5.10
2023-02-15T21:00:05.179Z,5.40
2023-02-15T21:02:36.460Z,5.70
2023-02-15T21:05:15.863Z,5.20
2023-02-15T21:07:47.236Z,5.30
2023-02-15T21:10:24.324Z,5.30
2023-02-15T21:12:55.784Z,5.20
2023-02-15T21:15:35.223Z,5.10
2023-02-15T21:18:08.026Z,4.60
2023-02-15T21:20:45.288Z,5.90
2023-02-15T21:23:18.857Z,5.10
2023-02-15T21:25:51.018Z,5.20
2023-02-15T21:28:25.096Z,4.50
2023-02-15T21:30:58.189Z,4.80
2023-02-15T21:33:29.596Z,5.10
2023-02-15T21:36:00.973Z,5.00
2023-02-15T21:38:39.639Z,5.00
2023-02-15T21:41:34.409Z,5.00
2023-02-15T21:44:32.438Z,5.30
2023-02-15T21:47:21.299Z,4.50
2023-02-15T21:49:53.399Z,4.90
2023-02-15T21:52:25.537Z,5.00
2023-02-15T21:54:56.452Z,5.10
2023-02-15T21:57:27.208Z,6.00
2023-02-15T21:59:58.056Z,5.30
2023-02-15T22:02:33.291Z,6.10
2023-02-15T22:05:07.724Z,5.70
2023-02-15T22:07:39.062Z,4.80
2023-02-15T22:10:11.596Z,6.20
2023-02-15T22:12:44.692Z,5.50
2023-02-15T22:15:23.792Z,6.20
2023-02-15T22:17:54.706Z,6.20
2023-02-15T22:20:26.671Z,5.60
2023-02-15T22:22:57.570Z,5.10
2023-02-15T22:25:29.528Z,5.50
2023-02-15T22:28:00.335Z,5.40
2023-02-15T22:30:34.501Z,5.10
2023-02-15T22:33:05.604Z,5.30
2023-02-15T22:35:37.477Z,6.00
2023-02-15T22:38:08.379Z,5.50
2023-02-15T22:40:39.325Z,5.50
2023-02-15T22:43:29.101Z,5.90
2023-02-15T22:46:03.131Z,5.60
2023-02-15T22:48:34.281Z,5.70
2023-02-15T22:51:05.507Z,5.50
2023-02-15T22:53:36.346Z,5.70
2023-02-15T22:56:10.706Z,6.60
2023-02-15T22:58:41.670Z,5.90
2023-02-15T23:01:23.220Z,5.50
2023-02-15T23:03:54.005Z,5.40
2023-02-15T23:06:24.981Z,6.00
2023-02-15T23:08:55.924Z,5.50
2023-02-15T23:11:27.274Z,6.30
2023-02-15T23:13:58.354Z,5.20
2023-02-15T23:16:29.229Z,5.90
2023-02-15T23:19:00.004Z,5.30
2023-02-15T23:21:33.124Z,6.40
2023-02-15T23:24:16.125Z,5.20
2023-02-15T23:26:47.186Z,6.30
2023-02-15T23:29:21.268Z,5.90
2023-02-15T23:31:54.303Z,6.30
2023-02-15T23:34:29.285Z,5.80
2023-02-15T23:37:00.052Z,6.50
2023-02-15T23:39:48.784Z,5.80
2023-02-15T23:42:22.452Z,5.60
2023-02-15T23:44:53.412Z,6.60
2023-02-15T23:47:41.980Z,5.80
2023-02-15T23:50:19.290Z,6.40
2023-02-15T23:52:50.928Z,5.80
2023-02-15T23:55:22.892Z,6.10
2023-02-15T23:57:54.676Z,6.10
